Time;durP1;ratioP1;P1;durP2;ratioP2;P2;SDS_P1;SDS_P2;PMS_P1;PMS_P2;Temp;Humidity;BMP_temperature;BMP_pressure;BME280_temperature;BME280_humidity;BME280_pressure;Samples;Min_cycle;Max_cycle;Signal;HPM_P1;HPM_P2
2023/03/02 00:00:54;;;;;;;25.60;15.30;;;;;;;;;;5022312;28;20265;-82
2023/03/02 00:03:19;;;;;;;24.70;15.40;;;;;;;;;;5025503;28;20182;-82
2023/03/02 00:05:46;;;;;;;26.93;17.10;;;;;;;;;;5027523;28;20269;-82
2023/03/02 00:08:12;;;;;;;15.00;9.07;;;;;;;;;;5024521;28;20208;-81
2023/03/02 00:10:37;;;;;;;22.93;13.73;;;;;;;;;;5037524;28;20262;-82
2023/03/02 00:13:03;;;;;;;24.40;15.17;;;;;;;;;;5031450;28;20308;-81
2023/03/02 00:15:28;;;;;;;23.93;12.47;;;;;;;;;;5040956;28;20229;-81
2023/03/02 00:17:53;;;;;;;21.60;14.30;;;;;;;;;;5019143;28;20182;-81
2023/03/02 00:20:19;;;;;;;21.33;12.83;;;;;;;;;;5024825;28;20293;-81
2023/03/02 00:22:44;;;;;;;23.93;13.97;;;;;;;;;;5020341;28;20182;-80
2023/03/02 00:25:10;;;;;;;20.27;14.43;;;;;;;;;;5019062;28;20189;-80
2023/03/02 00:27:36;;;;;;;25.90;16.03;;;;;;;;;;5017159;28;20183;-80
2023/03/02 00:30:01;;;;;;;26.10;14.60;;;;;;;;;;5027415;28;20188;-80
2023/03/02 00:32:26;;;;;;;25.60;15.70;;;;;;;;;;5022471;28;20252;-80
2023/03/02 00:34:51;;;;;;;17.17;12.33;;;;;;;;;;5027118;28;20209;-80
2023/03/02 00:37:17;;;;;;;24.13;15.17;;;;;;;;;;5020288;28;20224;-79
2023/03/02 00:39:42;;;;;;;22.20;14.40;;;;;;;;;;5018970;28;20173;-79
2023/03/02 00:42:07;;;;;;;34.20;17.73;;;;;;;;;;5020997;28;20325;-79
2023/03/02 00:44:33;;;;;;;23.83;14.97;;;;;;;;;;5025969;28;20183;-79
2023/03/02 00:46:58;;;;;;;25.83;15.30;;;;;;;;;;5025115;28;20190;-79
2023/03/02 00:49:23;;;;;;;22.83;13.70;;;;;;;;;;5016962;28;20179;-79
2023/03/02 00:51:49;;;;;;;22.43;12.97;;;;;;;;;;5028907;28;20202;-79
2023/03/02 00:54:14;;;;;;;26.10;14.00;;;;;;;;;;5028009;28;20232;-78
2023/03/02 00:56:39;;;;;;;21.60;13.10;;;;;;;;;;5015753;28;20249;-79
2023/03/02 00:59:05;;;;;;;21.80;13.17;;;;;;;;;;5041997;28;20174;-77
2023/03/02 01:01:30;;;;;;;17.50;8.50;;;;;;;;;;5030470;28;20188;-77
2023/03/02 01:03:56;;;;;;;27.00;17.17;;;;;;;;;;5020493;28;20182;-78
2023/03/02 01:06:21;;;;;;;19.57;12.70;;;;;;;;;;5021692;28;20297;-77
2023/03/02 01:08:46;;;;;;;23.60;14.17;;;;;;;;;;5025342;28;20198;-77
2023/03/02 01:11:15;;;;;;;24.77;14.03;;;;;;;;;;5022386;28;20210;-78
2023/03/02 01:13:41;;;;;;;21.67;13.10;;;;;;;;;;5020315;28;20235;-77
2023/03/02 01:16:06;;;;;;;19.83;12.90;;;;;;;;;;5025012;28;20231;-77
2023/03/02 01:18:33;;;;;;;25.67;15.47;;;;;;;;;;5025868;28;20179;-77
2023/03/02 01:20:59;;;;;;;19.93;13.37;;;;;;;;;;5046770;28;20178;-77
2023/03/02 01:23:24;;;;;;;28.90;16.90;;;;;;;;;;5027890;28;20180;-77
2023/03/02 01:25:50;;;;;;;24.53;15.63;;;;;;;;;;5016985;28;20245;-76
2023/03/02 01:28:16;;;;;;;25.67;16.37;;;;;;;;;;5019948;28;20187;-76
2023/03/02 01:30:41;;;;;;;27.00;15.60;;;;;;;;;;5043065;28;20233;-76
2023/03/02 01:33:06;;;;;;;18.73;10.83;;;;;;;;;;5020742;28;20178;-77
2023/03/02 01:35:31;;;;;;;21.20;13.80;;;;;;;;;;5047642;28;20205;-77
2023/03/02 01:37:56;;;;;;;27.63;15.23;;;;;;;;;;5030782;28;20170;-76
2023/03/02 01:40:22;;;;;;;17.10;8.13;;;;;;;;;;5031154;28;20181;-76
2023/03/02 01:42:51;;;;;;;24.40;13.13;;;;;;;;;;5033504;28;20189;-77
2023/03/02 01:45:35;;;;;;;27.20;15.67;;;;;;;;;;5022580;28;20189;-76
2023/03/02 01:48:00;;;;;;;26.67;15.03;;;;;;;;;;5034996;28;20201;-76
2023/03/02 01:50:26;;;;;;;29.23;17.60;;;;;;;;;;5029233;28;20221;-76
2023/03/02 01:52:52;;;;;;;22.90;14.23;;;;;;;;;;5027208;28;20178;-76
2023/03/02 01:55:20;;;;;;;18.80;12.17;;;;;;;;;;5028279;28;20177;-76
2023/03/02 01:57:47;;;;;;;23.70;15.50;;;;;;;;;;5027541;28;20199;-76
2023/03/02 02:00:18;;;;;;;24.00;14.93;;;;;;;;;;5023372;28;20205;-76
2023/03/02 02:02:43;;;;;;;16.30;9.60;;;;;;;;;;5025171;28;20207;-76
2023/03/02 02:05:11;;;;;;;21.80;11.73;;;;;;;;;;5020065;28;20245;-76
2023/03/02 02:07:37;;;;;;;13.47;7.40;;;;;;;;;;5026422;28;20217;-76
2023/03/02 02:10:04;;;;;;;24.40;15.40;;;;;;;;;;5021707;28;20182;-76
2023/03/02 02:12:29;;;;;;;24.97;14.30;;;;;;;;;;5033419;28;20240;-76
2023/03/02 02:14:59;;;;;;;25.73;17.37;;;;;;;;;;5029280;28;20226;-76
2023/03/02 02:17:25;;;;;;;16.47;10.17;;;;;;;;;;5004351;28;20201;-76
2023/03/02 02:19:50;;;;;;;7.63;5.80;;;;;;;;;;5004102;28;20187;-76
2023/03/02 02:22:21;;;;;;;23.87;13.27;;;;;;;;;;4999635;28;20219;-76
2023/03/02 02:24:51;;;;;;;29.37;17.20;;;;;;;;;;5022902;28;20309;-76
2023/03/02 02:27:16;;;;;;;28.03;15.33;;;;;;;;;;5026063;28;20183;-76
2023/03/02 02:29:47;;;;;;;28.10;17.10;;;;;;;;;;5022720;28;20182;-76
2023/03/02 02:32:15;;;;;;;23.60;13.63;;;;;;;;;;5006626;28;20295;-76
2023/03/02 02:34:45;;;;;;;27.10;15.60;;;;;;;;;;5009387;28;20215;-75
2023/03/02 02:37:15;;;;;;;30.63;18.13;;;;;;;;;;5021892;28;20206;-76
2023/03/02 02:39:43;;;;;;;29.47;16.20;;;;;;;;;;5001447;28;20182;-75
2023/03/02 02:42:27;;;;;;;21.57;13.47;;;;;;;;;;5011784;28;20208;-75
2023/03/02 02:44:55;;;;;;;30.40;18.00;;;;;;;;;;5023524;28;20185;-75
2023/03/02 02:47:21;;;;;;;32.33;18.43;;;;;;;;;;5007303;28;20300;-75
2023/03/02 02:49:47;;;;;;;27.47;14.67;;;;;;;;;;5008100;28;20218;-75
2023/03/02 02:52:14;;;;;;;28.43;16.07;;;;;;;;;;5009192;28;20237;-75
2023/03/02 02:54:41;;;;;;;20.40;11.63;;;;;;;;;;5021291;28;20184;-75
2023/03/02 02:57:06;;;;;;;28.43;17.97;;;;;;;;;;5007278;28;20249;-75
2023/03/02 02:59:33;;;;;;;28.50;17.27;;;;;;;;;;5017273;28;20270;-75
2023/03/02 03:01:59;;;;;;;30.10;18.27;;;;;;;;;;5003258;28;20206;-75
2023/03/02 03:04:29;;;;;;;28.23;16.13;;;;;;;;;;4999509;28;20197;-75
2023/03/02 03:06:58;;;;;;;29.50;17.60;;;;;;;;;;5022109;28;20185;-75
2023/03/02 03:09:24;;;;;;;27.37;17.93;;;;;;;;;;5005236;28;20181;-75
2023/03/02 03:11:57;;;;;;;25.33;16.00;;;;;;;;;;5027198;28;20303;-75
2023/03/02 03:14:28;;;;;;;26.97;16.87;;;;;;;;;;5003437;28;20221;-75
2023/03/02 03:16:53;;;;;;;22.97;13.53;;;;;;;;;;5017502;28;20184;-74
2023/03/02 03:19:23;;;;;;;27.47;16.43;;;;;;;;;;5031858;28;20180;-75
2023/03/02 03:21:50;;;;;;;26.20;14.47;;;;;;;;;;5018799;28;20186;-75
2023/03/02 03:24:16;;;;;;;29.07;17.33;;;;;;;;;;5030499;28;20184;-74
2023/03/02 03:26:41;;;;;;;29.67;17.20;;;;;;;;;;5048127;28;20191;-74
2023/03/02 03:29:06;;;;;;;25.73;15.97;;;;;;;;;;5024966;28;20204;-74
2023/03/02 03:31:32;;;;;;;30.43;18.43;;;;;;;;;;5031819;28;20209;-74
2023/03/02 03:33:59;;;;;;;33.93;18.10;;;;;;;;;;5020942;28;20185;-74
2023/03/02 03:36:25;;;;;;;31.13;17.67;;;;;;;;;;5026209;28;20331;-75
2023/03/02 03:38:50;;;;;;;29.23;17.93;;;;;;;;;;5026404;28;20189;-74
2023/03/02 03:41:16;;;;;;;29.33;16.50;;;;;;;;;;5020746;28;20196;-74
2023/03/02 03:43:41;;;;;;;27.77;17.17;;;;;;;;;;5024979;28;20200;-74
2023/03/02 03:46:06;;;;;;;27.57;17.40;;;;;;;;;;5025539;28;20185;-74
2023/03/02 03:48:31;;;;;;;28.57;18.00;;;;;;;;;;5029746;28;20186;-75
2023/03/02 03:50:58;;;;;;;23.30;15.53;;;;;;;;;;5024210;28;20211;-74
2023/03/02 03:53:23;;;;;;;26.03;15.53;;;;;;;;;;5025612;28;20246;-74
2023/03/02 03:55:49;;;;;;;34.37;18.93;;;;;;;;;;5017794;28;20272;-74
2023/03/02 03:58:14;;;;;;;24.70;15.20;;;;;;;;;;5025481;28;20202;-74
2023/03/02 04:00:39;;;;;;;28.47;17.70;;;;;;;;;;5025408;28;20178;-74
2023/03/02 04:03:05;;;;;;;25.87;15.43;;;;;;;;;;5024081;28;20208;-74
2023/03/02 04:05:30;;;;;;;30.00;16.07;;;;;;;;;;5062017;28;20184;-74
2023/03/02 04:07:55;;;;;;;31.97;17.37;;;;;;;;;;5038473;28;20235;-75
2023/03/02 04:10:20;;;;;;;29.23;16.23;;;;;;;;;;5021892;28;20176;-75
2023/03/02 04:12:46;;;;;;;29.13;17.03;;;;;;;;;;5033445;28;20266;-75
2023/03/02 04:15:13;;;;;;;32.17;16.77;;;;;;;;;;5022549;28;20225;-75
2023/03/02 04:17:38;;;;;;;26.70;16.83;;;;;;;;;;5005918;28;20180;-75
2023/03/02 04:20:08;;;;;;;24.00;13.27;;;;;;;;;;5005663;28;20200;-75
2023/03/02 04:22:33;;;;;;;38.10;19.97;;;;;;;;;;5002228;28;20203;-75
2023/03/02 04:24:58;;;;;;;33.73;16.47;;;;;;;;;;4999835;28;20184;-75
2023/03/02 04:27:23;;;;;;;27.70;16.23;;;;;;;;;;5009466;28;20278;-75
2023/03/02 04:29:51;;;;;;;17.63;11.47;;;;;;;;;;5006538;28;20204;-75
2023/03/02 04:32:17;;;;;;;28.93;17.30;;;;;;;;;;5000553;28;20211;-75
2023/03/02 04:34:42;;;;;;;30.80;17.83;;;;;;;;;;5005579;28;20179;-75
2023/03/02 04:37:07;;;;;;;32.73;18.63;;;;;;;;;;4998110;28;20178;-76
2023/03/02 04:39:33;;;;;;;28.97;15.83;;;;;;;;;;5010303;28;20206;-75
2023/03/02 04:41:58;;;;;;;33.67;19.00;;;;;;;;;;5003178;28;20177;-75
2023/03/02 04:44:23;;;;;;;30.63;17.27;;;;;;;;;;5007788;28;20203;-76
2023/03/02 04:46:49;;;;;;;28.87;16.40;;;;;;;;;;4999665;28;20215;-75
2023/03/02 04:49:15;;;;;;;30.53;14.13;;;;;;;;;;5007485;28;20180;-75
2023/03/02 04:51:42;;;;;;;26.73;15.93;;;;;;;;;;5003736;28;20197;-75
2023/03/02 04:54:12;;;;;;;33.83;18.57;;;;;;;;;;5014310;28;20190;-76
2023/03/02 04:56:37;;;;;;;31.83;16.40;;;;;;;;;;5004304;28;20211;-75
2023/03/02 04:59:02;;;;;;;25.90;15.33;;;;;;;;;;5004563;28;20181;-76
2023/03/02 05:01:27;;;;;;;20.77;14.57;;;;;;;;;;4998451;28;20254;-75
2023/03/02 05:03:53;;;;;;;34.63;17.23;;;;;;;;;;5004023;28;20185;-76
2023/03/02 05:06:20;;;;;;;30.43;15.47;;;;;;;;;;5002811;28;20188;-75
2023/03/02 05:08:46;;;;;;;29.17;14.60;;;;;;;;;;5010029;28;20198;-76
2023/03/02 05:11:20;;;;;;;7.97;5.70;;;;;;;;;;5003467;28;20295;-76
2023/03/02 05:13:46;;;;;;;27.63;16.07;;;;;;;;;;5004702;28;20271;-76
2023/03/02 05:16:11;;;;;;;28.57;15.83;;;;;;;;;;5006976;28;20286;-76
2023/03/02 05:18:36;;;;;;;33.07;17.57;;;;;;;;;;4995023;28;20200;-76
2023/03/02 05:21:02;;;;;;;21.13;12.30;;;;;;;;;;5004653;28;20271;-76
2023/03/02 05:23:30;;;;;;;28.13;17.67;;;;;;;;;;5009016;28;20237;-76
2023/03/02 05:25:55;;;;;;;28.50;15.13;;;;;;;;;;5004663;28;20176;-76
2023/03/02 05:28:21;;;;;;;29.93;16.80;;;;;;;;;;5006352;28;20180;-75
2023/03/02 05:30:47;;;;;;;17.33;9.53;;;;;;;;;;5004559;28;20273;-76
2023/03/02 05:33:12;;;;;;;29.83;15.80;;;;;;;;;;5001694;28;20212;-76
2023/03/02 05:35:38;;;;;;;29.10;15.57;;;;;;;;;;5006165;28;20179;-76
2023/03/02 05:38:04;;;;;;;18.63;11.60;;;;;;;;;;5010978;28;20211;-76
2023/03/02 05:40:29;;;;;;;26.80;14.27;;;;;;;;;;5005890;28;20181;-77
2023/03/02 05:42:54;;;;;;;28.97;16.13;;;;;;;;;;5000383;28;20184;-76
2023/03/02 05:45:27;;;;;;;25.87;17.03;;;;;;;;;;5006752;28;20191;-76
2023/03/02 05:47:53;;;;;;;27.20;16.27;;;;;;;;;;5002278;28;20270;-76
2023/03/02 05:50:18;;;;;;;26.23;16.37;;;;;;;;;;4997294;28;20208;-76
2023/03/02 05:52:46;;;;;;;28.13;15.60;;;;;;;;;;5025320;28;20247;-76
2023/03/02 05:55:12;;;;;;;26.10;15.70;;;;;;;;;;5021244;28;20183;-78
2023/03/02 05:57:37;;;;;;;34.10;18.07;;;;;;;;;;5010113;28;20188;-78
2023/03/02 06:00:04;;;;;;;28.63;17.30;;;;;;;;;;5007958;28;20190;-79
2023/03/02 06:02:30;;;;;;;28.80;16.20;;;;;;;;;;5003206;28;20195;-78
2023/03/02 06:04:55;;;;;;;36.03;19.60;;;;;;;;;;5007395;28;20190;-77
2023/03/02 06:07:20;;;;;;;36.03;18.30;;;;;;;;;;5005389;28;20249;-78
2023/03/02 06:09:45;;;;;;;25.93;14.87;;;;;;;;;;5007475;28;20185;-78
2023/03/02 06:12:11;;;;;;;31.00;17.07;;;;;;;;;;5018426;28;20212;-78
2023/03/02 06:14:36;;;;;;;26.40;15.27;;;;;;;;;;5002564;28;20310;-78
2023/03/02 06:17:01;;;;;;;29.10;16.73;;;;;;;;;;5027783;28;20178;-78
2023/03/02 06:19:26;;;;;;;21.07;11.40;;;;;;;;;;5003065;28;20173;-78
2023/03/02 06:21:52;;;;;;;32.67;17.83;;;;;;;;;;5028710;28;20286;-78
2023/03/02 06:24:17;;;;;;;32.70;18.40;;;;;;;;;;5007642;28;20200;-78
2023/03/02 06:26:42;;;;;;;34.50;19.23;;;;;;;;;;5011059;28;20182;-78
2023/03/02 06:29:07;;;;;;;32.60;18.63;;;;;;;;;;5007795;28;20187;-78
2023/03/02 06:31:33;;;;;;;27.90;16.87;;;;;;;;;;5021434;28;20218;-78
2023/03/02 06:33:58;;;;;;;33.93;18.23;;;;;;;;;;5007856;28;20171;-78
2023/03/02 06:36:24;;;;;;;27.83;18.40;;;;;;;;;;5003791;28;20179;-78
2023/03/02 06:38:49;;;;;;;30.00;16.47;;;;;;;;;;5002907;28;20208;-78
2023/03/02 06:41:15;;;;;;;32.37;16.63;;;;;;;;;;5009598;28;20230;-78
2023/03/02 06:43:40;;;;;;;33.67;16.30;;;;;;;;;;5012410;28;20185;-78
2023/03/02 06:46:05;;;;;;;30.23;18.90;;;;;;;;;;5002975;28;20176;-78
2023/03/02 06:48:30;;;;;;;33.17;17.80;;;;;;;;;;5007446;28;20184;-78
2023/03/02 06:50:56;;;;;;;25.00;11.57;;;;;;;;;;5007691;28;22139;-78
2023/03/02 06:53:22;;;;;;;31.87;18.70;;;;;;;;;;5005604;28;20204;-78
2023/03/02 06:55:47;;;;;;;21.73;13.47;;;;;;;;;;5010174;28;20181;-78
2023/03/02 06:58:12;;;;;;;28.27;17.70;;;;;;;;;;5002943;28;20200;-78
2023/03/02 07:00:38;;;;;;;30.10;16.13;;;;;;;;;;5006478;28;20183;-78
2023/03/02 07:03:03;;;;;;;30.80;16.77;;;;;;;;;;5014343;28;20178;-78
2023/03/02 07:05:31;;;;;;;32.80;18.40;;;;;;;;;;5007336;28;20195;-78
2023/03/02 07:07:56;;;;;;;23.13;13.03;;;;;;;;;;5009961;28;20180;-78
2023/03/02 07:10:21;;;;;;;26.83;15.53;;;;;;;;;;5005721;28;20188;-78
2023/03/02 07:12:47;;;;;;;8.37;5.63;;;;;;;;;;5006283;28;20223;-78
2023/03/02 07:15:13;;;;;;;29.37;16.73;;;;;;;;;;5010598;28;20229;-77
2023/03/02 07:17:38;;;;;;;27.20;15.50;;;;;;;;;;5006144;28;20181;-78
2023/03/02 07:20:05;;;;;;;31.53;22.73;;;;;;;;;;5010305;28;20263;-78
2023/03/02 07:22:30;;;;;;;25.80;13.97;;;;;;;;;;5028967;28;20220;-79
2023/03/02 07:24:55;;;;;;;36.43;20.47;;;;;;;;;;5007985;28;20212;-79
2023/03/02 07:27:21;;;;;;;29.80;17.47;;;;;;;;;;4998977;28;20212;-79
2023/03/02 07:29:46;;;;;;;25.27;15.87;;;;;;;;;;5008609;28;20196;-79
2023/03/02 07:32:11;;;;;;;31.00;18.17;;;;;;;;;;5003669;28;20208;-79
2023/03/02 07:34:36;;;;;;;29.87;17.73;;;;;;;;;;5001963;28;20185;-79
2023/03/02 07:37:02;;;;;;;34.57;17.27;;;;;;;;;;5007312;28;20180;-79
2023/03/02 07:39:27;;;;;;;24.57;11.20;;;;;;;;;;5009617;28;20195;-79
2023/03/02 07:41:56;;;;;;;28.70;15.83;;;;;;;;;;5011678;28;20209;-79
2023/03/02 07:44:21;;;;;;;33.63;18.80;;;;;;;;;;5004544;28;20254;-79
2023/03/02 07:46:46;;;;;;;30.27;18.07;;;;;;;;;;5004511;28;20281;-79
2023/03/02 07:49:11;;;;;;;31.83;18.17;;;;;;;;;;4999806;28;20188;-79
2023/03/02 07:51:37;;;;;;;32.57;17.03;;;;;;;;;;5007689;28;20197;-79
2023/03/02 07:54:03;;;;;;;28.07;16.90;;;;;;;;;;5005008;28;20271;-79
2023/03/02 07:56:29;;;;;;;25.90;17.00;;;;;;;;;;5006124;28;20178;-79
2023/03/02 07:58:54;;;;;;;27.13;16.53;;;;;;;;;;4999150;28;20177;-79
2023/03/02 08:01:19;;;;;;;25.47;14.87;;;;;;;;;;5012717;28;20199;-79
2023/03/02 08:03:44;;;;;;;30.30;17.03;;;;;;;;;;5002334;28;20192;-79
2023/03/02 08:06:12;;;;;;;23.43;14.27;;;;;;;;;;4997793;28;20313;-79
2023/03/02 08:08:37;;;;;;;31.03;18.80;;;;;;;;;;4997473;28;20217;-79
2023/03/02 08:11:04;;;;;;;29.93;18.87;;;;;;;;;;5028273;28;20230;-79
2023/03/02 08:13:29;;;;;;;35.77;18.73;;;;;;;;;;5007465;28;20189;-79
2023/03/02 08:15:58;;;;;;;37.63;20.43;;;;;;;;;;5006485;28;20228;-79
2023/03/02 08:18:23;;;;;;;25.93;11.83;;;;;;;;;;5004416;28;20222;-79
2023/03/02 08:20:48;;;;;;;27.60;17.43;;;;;;;;;;5000469;28;20193;-79
2023/03/02 08:23:14;;;;;;;28.77;18.07;;;;;;;;;;4995385;28;20232;-79
2023/03/02 08:25:40;;;;;;;31.43;17.60;;;;;;;;;;4999760;28;20180;-79
2023/03/02 08:28:06;;;;;;;30.03;17.20;;;;;;;;;;5009091;28;20272;-79
2023/03/02 08:30:31;;;;;;;33.27;18.53;;;;;;;;;;5001043;28;20275;-79
2023/03/02 08:32:56;;;;;;;27.13;15.13;;;;;;;;;;5005038;28;20284;-79
2023/03/02 08:35:21;;;;;;;28.03;16.00;;;;;;;;;;5006616;28;20178;-79
2023/03/02 08:37:46;;;;;;;32.47;18.47;;;;;;;;;;5005754;28;20169;-79
2023/03/02 08:40:12;;;;;;;30.30;17.50;;;;;;;;;;5009930;28;20179;-79
2023/03/02 08:42:37;;;;;;;29.07;17.10;;;;;;;;;;4997596;28;20182;-79
2023/03/02 08:45:02;;;;;;;28.37;15.63;;;;;;;;;;5004639;28;20196;-79
2023/03/02 08:47:28;;;;;;;24.47;15.50;;;;;;;;;;4994577;28;20182;-79
2023/03/02 08:49:53;;;;;;;30.23;20.23;;;;;;;;;;5008978;28;20182;-79
2023/03/02 08:52:18;;;;;;;32.13;18.27;;;;;;;;;;4996288;28;20200;-79
2023/03/02 08:54:43;;;;;;;27.17;17.83;;;;;;;;;;5022050;28;20177;-79
2023/03/02 08:57:09;;;;;;;27.07;16.47;;;;;;;;;;5006438;28;20209;-78
2023/03/02 08:59:34;;;;;;;24.70;16.20;;;;;;;;;;5003397;28;20212;-79
2023/03/02 09:02:00;;;;;;;27.50;17.00;;;;;;;;;;5011239;28;20180;-79
2023/03/02 09:04:25;;;;;;;28.27;15.43;;;;;;;;;;5003125;28;20188;-78
2023/03/02 09:06:50;;;;;;;32.03;18.50;;;;;;;;;;5011893;28;20179;-78
2023/03/02 09:09:15;;;;;;;35.10;18.33;;;;;;;;;;5006410;28;20271;-78
2023/03/02 09:11:41;;;;;;;29.23;16.47;;;;;;;;;;5014550;28;20214;-78
2023/03/02 09:14:06;;;;;;;29.90;17.07;;;;;;;;;;5003961;28;20171;-77
2023/03/02 09:16:31;;;;;;;30.33;17.73;;;;;;;;;;5054905;28;20225;-78
2023/03/02 09:18:57;;;;;;;34.13;18.27;;;;;;;;;;5036525;28;20181;-77
2023/03/02 09:21:24;;;;;;;27.93;18.10;;;;;;;;;;5031296;28;20185;-78
2023/03/02 09:23:54;;;;;;;34.47;18.87;;;;;;;;;;5028852;28;20182;-78
2023/03/02 09:26:19;;;;;;;31.53;17.50;;;;;;;;;;5022702;28;20185;-78
2023/03/02 09:28:44;;;;;;;33.17;18.67;;;;;;;;;;5030998;28;20178;-77
2023/03/02 09:31:10;;;;;;;29.80;17.67;;;;;;;;;;5027281;28;20209;-77
2023/03/02 09:33:35;;;;;;;32.30;18.40;;;;;;;;;;5031107;28;20182;-77
2023/03/02 09:36:04;;;;;;;30.50;18.53;;;;;;;;;;5037678;28;20181;-78
2023/03/02 09:38:29;;;;;;;29.87;18.87;;;;;;;;;;5032227;28;20231;-77
2023/03/02 09:40:57;;;;;;;31.77;18.90;;;;;;;;;;5032707;28;20182;-77
2023/03/02 09:43:40;;;;;;;29.60;18.83;;;;;;;;;;5026440;28;20202;-77
2023/03/02 09:46:14;;;;;;;33.60;17.60;;;;;;;;;;5023966;28;20289;-78
2023/03/02 09:48:48;;;;;;;32.30;18.93;;;;;;;;;;5023259;28;20174;-77
2023/03/02 09:51:33;;;;;;;29.70;18.63;;;;;;;;;;5019225;28;20320;-78
2023/03/02 09:54:01;;;;;;;37.23;19.23;;;;;;;;;;5030861;28;20189;-77
2023/03/02 09:56:27;;;;;;;32.93;17.83;;;;;;;;;;5026537;28;20270;-77
2023/03/02 09:58:59;;;;;;;30.60;17.97;;;;;;;;;;5028176;28;20257;-77
2023/03/02 10:01:30;;;;;;;32.50;18.40;;;;;;;;;;5028012;28;20178;-77
2023/03/02 10:04:04;;;;;;;29.97;18.13;;;;;;;;;;5038198;28;20192;-77
2023/03/02 10:06:29;;;;;;;37.20;21.83;;;;;;;;;;5019766;28;20186;-77
2023/03/02 10:08:55;;;;;;;29.90;15.87;;;;;;;;;;5029683;28;20174;-77
2023/03/02 10:11:36;;;;;;;29.93;16.83;;;;;;;;;;5026297;28;20206;-77
2023/03/02 10:14:07;;;;;;;30.07;16.47;;;;;;;;;;5029972;28;20174;-77
2023/03/02 10:16:32;;;;;;;55.90;20.20;;;;;;;;;;5001906;28;20284;-77
2023/03/02 10:19:12;;;;;;;32.87;18.90;;;;;;;;;;5020246;28;20183;-77
2023/03/02 10:21:39;;;;;;;28.10;16.23;;;;;;;;;;5006269;28;20252;-77
2023/03/02 10:24:13;;;;;;;31.57;15.53;;;;;;;;;;5006504;28;20233;-77
2023/03/02 10:26:43;;;;;;;27.83;18.47;;;;;;;;;;5008338;28;20197;-77
2023/03/02 10:29:23;;;;;;;26.30;16.23;;;;;;;;;;4998501;28;20187;-77
2023/03/02 10:31:52;;;;;;;34.23;17.77;;;;;;;;;;5010571;28;20296;-77
2023/03/02 10:34:17;;;;;;;29.50;17.17;;;;;;;;;;4996520;28;20179;-77
2023/03/02 10:36:43;;;;;;;36.67;19.53;;;;;;;;;;5007418;28;20179;-77
2023/03/02 10:39:12;;;;;;;29.27;16.17;;;;;;;;;;4997113;28;20271;-78
2023/03/02 10:41:58;;;;;;;29.07;16.50;;;;;;;;;;5008174;28;20225;-77
2023/03/02 10:44:23;;;;;;;35.60;18.83;;;;;;;;;;5024087;28;20183;-78
2023/03/02 10:46:50;;;;;;;31.57;18.43;;;;;;;;;;5010315;28;20198;-77
2023/03/02 10:49:34;;;;;;;29.40;17.67;;;;;;;;;;5007262;28;20179;-77
2023/03/02 10:52:01;;;;;;;28.53;17.43;;;;;;;;;;5004418;28;20194;-78
2023/03/02 10:54:28;;;;;;;30.10;18.10;;;;;;;;;;5009082;28;20257;-78
2023/03/02 10:56:55;;;;;;;31.87;19.40;;;;;;;;;;5008836;28;20170;-77
2023/03/02 10:59:24;;;;;;;30.63;18.43;;;;;;;;;;5009912;28;20185;-78
2023/03/02 11:02:02;;;;;;;29.47;18.77;;;;;;;;;;5010412;28;20225;-77
2023/03/02 11:04:28;;;;;;;33.83;18.77;;;;;;;;;;5005711;28;20198;-77
2023/03/02 11:06:54;;;;;;;30.90;17.97;;;;;;;;;;5004515;28;20245;-78
2023/03/02 11:09:19;;;;;;;33.43;20.07;;;;;;;;;;5001922;28;20183;-78
2023/03/02 11:11:52;;;;;;;28.27;16.60;;;;;;;;;;5007305;28;20236;-77
2023/03/02 11:14:17;;;;;;;33.03;19.00;;;;;;;;;;5020011;28;20209;-78
2023/03/02 11:16:43;;;;;;;31.77;18.23;;;;;;;;;;5028019;28;20228;-78
2023/03/02 11:19:27;;;;;;;35.63;20.50;;;;;;;;;;5021180;28;20178;-78
2023/03/02 11:21:59;;;;;;;32.13;17.67;;;;;;;;;;5023228;28;20272;-78
2023/03/02 11:24:30;;;;;;;36.13;19.57;;;;;;;;;;5023035;28;20174;-78
2023/03/02 11:26:59;;;;;;;32.23;18.70;;;;;;;;;;5016557;28;20167;-77
2023/03/02 11:29:24;;;;;;;32.87;20.47;;;;;;;;;;5028759;28;20178;-78
2023/03/02 11:31:52;;;;;;;31.20;17.90;;;;;;;;;;5042419;28;20205;-78
2023/03/02 11:34:17;;;;;;;32.33;17.87;;;;;;;;;;5030701;28;20174;-78
2023/03/02 11:37:02;;;;;;;33.37;19.63;;;;;;;;;;5017508;28;20202;-78
2023/03/02 11:39:35;;;;;;;31.17;19.37;;;;;;;;;;5026202;28;20187;-79
2023/03/02 11:42:01;;;;;;;31.70;20.20;;;;;;;;;;5044252;28;20178;-78
2023/03/02 11:44:27;;;;;;;31.27;18.60;;;;;;;;;;5023803;28;20402;-79
2023/03/02 11:46:57;;;;;;;36.20;20.07;;;;;;;;;;5023208;28;20220;-79
2023/03/02 11:49:25;;;;;;;32.37;19.37;;;;;;;;;;5023062;28;20174;-79
2023/03/02 11:51:54;;;;;;;52.30;24.93;;;;;;;;;;5024586;28;20198;-79
2023/03/02 11:54:22;;;;;;;37.50;20.97;;;;;;;;;;5019974;28;20293;-79
2023/03/02 11:56:47;;;;;;;32.60;19.53;;;;;;;;;;5030167;28;20232;-79
2023/03/02 11:59:17;;;;;;;32.87;20.57;;;;;;;;;;5047085;28;20183;-79
2023/03/02 12:01:44;;;;;;;33.70;19.57;;;;;;;;;;5041189;28;20186;-79
2023/03/02 12:04:24;;;;;;;35.80;19.90;;;;;;;;;;5030609;28;20178;-79
2023/03/02 12:06:49;;;;;;;31.07;18.67;;;;;;;;;;5027042;28;20192;-79
2023/03/02 12:09:23;;;;;;;30.13;19.27;;;;;;;;;;5019750;28;20265;-79
2023/03/02 12:12:07;;;;;;;26.70;17.97;;;;;;;;;;5023506;28;20349;-79
2023/03/02 12:14:37;;;;;;;35.20;22.20;;;;;;;;;;5029567;28;20179;-79
2023/03/02 12:17:03;;;;;;;30.07;19.40;;;;;;;;;;5023351;28;20170;-79
2023/03/02 12:19:38;;;;;;;29.87;18.67;;;;;;;;;;5033570;28;20225;-80
2023/03/02 12:22:05;;;;;;;27.47;17.87;;;;;;;;;;5026644;28;20260;-79
2023/03/02 12:24:32;;;;;;;35.37;20.07;;;;;;;;;;5019815;28;20263;-79
2023/03/02 12:27:06;;;;;;;33.67;19.60;;;;;;;;;;5021846;28;20181;-79
2023/03/02 12:29:50;;;;;;;30.17;19.37;;;;;;;;;;5026109;28;20208;-79
2023/03/02 12:32:26;;;;;;;27.70;17.47;;;;;;;;;;5030884;28;20228;-79
2023/03/02 12:34:51;;;;;;;39.67;20.07;;;;;;;;;;5031646;28;20185;-79
2023/03/02 12:37:20;;;;;;;31.33;19.77;;;;;;;;;;5017921;28;20178;-79
2023/03/02 12:39:57;;;;;;;45.67;19.97;;;;;;;;;;5028471;28;20182;-79
2023/03/02 12:42:45;;;;;;;29.50;18.37;;;;;;;;;;5031455;28;20178;-79
2023/03/02 12:45:23;;;;;;;32.70;19.27;;;;;;;;;;5025591;28;20177;-79
2023/03/02 12:47:51;;;;;;;37.63;21.03;;;;;;;;;;5019119;28;20178;-79
2023/03/02 12:50:18;;;;;;;43.27;21.47;;;;;;;;;;5019005;28;20273;-80
2023/03/02 12:52:44;;;;;;;32.17;19.30;;;;;;;;;;5030458;28;20202;-79
2023/03/02 12:55:16;;;;;;;36.47;21.87;;;;;;;;;;5025132;28;20166;-79
2023/03/02 12:57:49;;;;;;;26.63;18.50;;;;;;;;;;5023519;28;20197;-79
2023/03/02 13:00:16;;;;;;;31.30;20.60;;;;;;;;;;5025910;28;20174;-79
2023/03/02 13:02:46;;;;;;;35.63;21.80;;;;;;;;;;5021339;28;20179;-79
2023/03/02 13:05:15;;;;;;;30.90;19.40;;;;;;;;;;5017119;28;20184;-79
2023/03/02 13:07:43;;;;;;;33.03;20.47;;;;;;;;;;5018074;28;20180;-79
2023/03/02 13:10:19;;;;;;;27.70;18.60;;;;;;;;;;5025101;28;20179;-79
2023/03/02 13:12:45;;;;;;;30.00;19.77;;;;;;;;;;5025824;28;20217;-79
2023/03/02 13:15:15;;;;;;;50.90;22.87;;;;;;;;;;5013548;28;20218;-79
2023/03/02 13:17:40;;;;;;;31.33;19.47;;;;;;;;;;5001567;28;20186;-79
2023/03/02 13:20:06;;;;;;;29.80;20.67;;;;;;;;;;5022285;28;20176;-80
2023/03/02 13:22:32;;;;;;;27.43;19.33;;;;;;;;;;5004245;28;20183;-80
2023/03/02 13:25:00;;;;;;;29.87;19.47;;;;;;;;;;5002975;28;20238;-79
2023/03/02 13:27:27;;;;;;;30.17;19.97;;;;;;;;;;5001794;28;20242;-80
2023/03/02 13:29:56;;;;;;;28.83;18.53;;;;;;;;;;5000778;28;20184;-80
2023/03/02 13:32:28;;;;;;;27.47;18.60;;;;;;;;;;5019525;28;20196;-80
2023/03/02 13:35:13;;;;;;;28.83;20.20;;;;;;;;;;4999920;28;20208;-80
2023/03/02 13:37:42;;;;;;;29.10;18.77;;;;;;;;;;4994835;28;20317;-80
2023/03/02 13:40:37;;;;;;;29.43;18.77;;;;;;;;;;5004184;28;20212;-80
2023/03/02 13:43:07;;;;;;;25.93;18.07;;;;;;;;;;4991585;28;20213;-80
2023/03/02 13:45:32;;;;;;;38.20;19.70;;;;;;;;;;5004975;28;20188;-81
2023/03/02 13:48:11;;;;;;;25.57;18.57;;;;;;;;;;5009806;28;20182;-80
2023/03/02 13:50:37;;;;;;;27.47;18.53;;;;;;;;;;5011438;28;20266;-80
2023/03/02 13:53:05;;;;;;;27.80;17.67;;;;;;;;;;5007616;28;20225;-77
2023/03/02 13:55:31;;;;;;;50.83;21.90;;;;;;;;;;5009797;28;20185;-77
2023/03/02 13:57:57;;;;;;;22.93;15.10;;;;;;;;;;5004897;28;20178;-77
2023/03/02 14:00:26;;;;;;;27.30;17.83;;;;;;;;;;5011851;28;20269;-77
2023/03/02 14:02:51;;;;;;;27.53;19.00;;;;;;;;;;5005197;28;20181;-77
2023/03/02 14:05:17;;;;;;;28.70;17.80;;;;;;;;;;5005612;28;20186;-77
2023/03/02 14:07:43;;;;;;;25.37;17.87;;;;;;;;;;5010561;28;20243;-77
2023/03/02 14:10:09;;;;;;;25.87;16.07;;;;;;;;;;5006156;28;20187;-77
2023/03/02 14:12:35;;;;;;;33.67;19.13;;;;;;;;;;5021596;28;20204;-77
2023/03/02 14:15:02;;;;;;;26.80;16.83;;;;;;;;;;5007283;28;20313;-77
2023/03/02 14:17:27;;;;;;;22.57;16.63;;;;;;;;;;5002139;28;20180;-77
2023/03/02 14:19:53;;;;;;;27.03;17.27;;;;;;;;;;5029083;28;20262;-77